sensor_id;sensor_type;location;lat;lon;timestamp;pressure;altitude;pressure_sealevel;temperature;humidity
77288;BME280;66345;42.694;23.346;2023-11-21T00:02:04;95403.69;;;3.43;83.85
77288;BME280;66345;42.694;23.346;2023-11-21T00:04:30;95411.06;;;3.57;83.47
77288;BME280;66345;42.694;23.346;2023-11-21T00:06:55;95419.03;;;3.38;84.76
77288;BME280;66345;42.694;23.346;2023-11-21T00:09:20;95411.16;;;3.38;84.83
77288;BME280;66345;42.694;23.346;2023-11-21T00:11:47;95417.63;;;3.44;84.80
77288;BME280;66345;42.694;23.346;2023-11-21T00:14:12;95420.41;;;3.60;84.10
77288;BME280;66345;42.694;23.346;2023-11-21T00:16:40;95407.84;;;3.64;83.39
77288;BME280;66345;42.694;23.346;2023-11-21T00:19:05;95416.94;;;3.87;82.42
77288;BME280;66345;42.694;23.346;2023-11-21T00:21:30;95412.28;;;3.81;82.45
77288;BME280;66345;42.694;23.346;2023-11-21T00:23:56;95413.91;;;3.82;82.68
77288;BME280;66345;42.694;23.346;2023-11-21T00:26:21;95419.78;;;3.94;82.46
77288;BME280;66345;42.694;23.346;2023-11-21T00:28:47;95412.59;;;3.96;82.28
77288;BME280;66345;42.694;23.346;2023-11-21T00:31:12;95399.31;;;3.97;81.89
77288;BME280;66345;42.694;23.346;2023-11-21T00:33:38;95396.00;;;4.13;81.42
77288;BME280;66345;42.694;23.346;2023-11-21T00:36:04;95395.31;;;4.11;80.95
77288;BME280;66345;42.694;23.346;2023-11-21T00:38:35;95395.22;;;4.21;80.90
77288;BME280;66345;42.694;23.346;2023-11-21T00:41:00;95396.16;;;4.11;81.07
77288;BME280;66345;42.694;23.346;2023-11-21T00:43:26;95399.66;;;4.20;80.74
77288;BME280;66345;42.694;23.346;2023-11-21T00:45:51;95403.88;;;4.31;80.06
77288;BME280;66345;42.694;23.346;2023-11-21T00:48:16;95401.84;;;4.25;79.94
77288;BME280;66345;42.694;23.346;2023-11-21T00:50:43;95399.44;;;4.31;79.05
77288;BME280;66345;42.694;23.346;2023-11-21T00:53:09;95392.38;;;4.32;78.62
77288;BME280;66345;42.694;23.346;2023-11-21T00:55:34;95406.09;;;4.08;79.60
77288;BME280;66345;42.694;23.346;2023-11-21T00:58:00;95405.59;;;4.04;80.37
77288;BME280;66345;42.694;23.346;2023-11-21T01:00:28;95401.59;;;4.00;80.44
77288;BME280;66345;42.694;23.346;2023-11-21T01:02:54;95399.84;;;4.01;80.50
77288;BME280;66345;42.694;23.346;2023-11-21T01:05:19;95398.38;;;4.06;79.85
77288;BME280;66345;42.694;23.346;2023-11-21T01:07:45;95387.28;;;4.12;79.82
77288;BME280;66345;42.694;23.346;2023-11-21T01:10:10;95385.50;;;3.95;80.07
77288;BME280;66345;42.694;23.346;2023-11-21T01:12:37;95382.94;;;4.03;79.88
77288;BME280;66345;42.694;23.346;2023-11-21T01:15:06;95391.44;;;3.79;80.08
77288;BME280;66345;42.694;23.346;2023-11-21T01:17:37;95384.31;;;3.72;81.27
77288;BME280;66345;42.694;23.346;2023-11-21T01:20:04;95392.69;;;3.57;81.08
77288;BME280;66345;42.694;23.346;2023-11-21T01:22:36;95386.84;;;3.64;81.66
77288;BME280;66345;42.694;23.346;2023-11-21T01:25:01;95390.38;;;3.72;81.17
77288;BME280;66345;42.694;23.346;2023-11-21T01:27:29;95393.16;;;3.88;80.55
77288;BME280;66345;42.694;23.346;2023-11-21T01:29:55;95397.44;;;3.89;80.68
77288;BME280;66345;42.694;23.346;2023-11-21T01:32:20;95384.91;;;3.83;80.62
77288;BME280;66345;42.694;23.346;2023-11-21T01:34:47;95384.75;;;3.85;80.71
77288;BME280;66345;42.694;23.346;2023-11-21T01:37:12;95388.56;;;3.90;80.92
77288;BME280;66345;42.694;23.346;2023-11-21T01:39:38;95390.16;;;3.83;80.11
77288;BME280;66345;42.694;23.346;2023-11-21T01:42:05;95404.09;;;3.84;80.50
77288;BME280;66345;42.694;23.346;2023-11-21T01:44:30;95398.53;;;3.69;81.26
77288;BME280;66345;42.694;23.346;2023-11-21T01:46:56;95400.56;;;3.57;81.82
77288;BME280;66345;42.694;23.346;2023-11-21T01:49:23;95399.41;;;3.42;81.95
77288;BME280;66345;42.694;23.346;2023-11-21T01:51:49;95384.19;;;3.46;81.86
77288;BME280;66345;42.694;23.346;2023-11-21T01:54:18;95375.88;;;3.50;81.36
77288;BME280;66345;42.694;23.346;2023-11-21T01:56:47;95382.19;;;3.57;81.73
77288;BME280;66345;42.694;23.346;2023-11-21T01:59:18;95383.59;;;3.52;81.58
77288;BME280;66345;42.694;23.346;2023-11-21T02:01:44;95392.22;;;3.44;81.62
77288;BME280;66345;42.694;23.346;2023-11-21T02:04:12;95387.72;;;3.54;81.51
77288;BME280;66345;42.694;23.346;2023-11-21T02:06:37;95385.78;;;3.56;80.95
77288;BME280;66345;42.694;23.346;2023-11-21T02:09:04;95393.34;;;3.59;81.07
77288;BME280;66345;42.694;23.346;2023-11-21T02:11:30;95381.22;;;3.58;81.56
77288;BME280;66345;42.694;23.346;2023-11-21T02:13:58;95397.84;;;3.49;81.40
77288;BME280;66345;42.694;23.346;2023-11-21T02:16:24;95381.69;;;3.26;81.92
77288;BME280;66345;42.694;23.346;2023-11-21T02:18:51;95393.00;;;2.99;82.38
77288;BME280;66345;42.694;23.346;2023-11-21T02:21:17;95390.91;;;2.66;84.74
77288;BME280;66345;42.694;23.346;2023-11-21T02:23:44;95388.59;;;2.53;86.00
77288;BME280;66345;42.694;23.346;2023-11-21T02:26:12;95390.00;;;2.47;86.36
77288;BME280;66345;42.694;23.346;2023-11-21T02:28:37;95368.78;;;2.50;86.49
77288;BME280;66345;42.694;23.346;2023-11-21T02:31:04;95389.28;;;2.55;86.29
77288;BME280;66345;42.694;23.346;2023-11-21T02:33:30;95389.84;;;2.59;86.11
77288;BME280;66345;42.694;23.346;2023-11-21T02:36:02;95378.59;;;2.76;86.69
77288;BME280;66345;42.694;23.346;2023-11-21T02:38:27;95376.69;;;3.05;84.15
77288;BME280;66345;42.694;23.346;2023-11-21T02:40:53;95378.28;;;3.16;83.47
77288;BME280;66345;42.694;23.346;2023-11-21T02:43:18;95379.09;;;3.17;82.83
77288;BME280;66345;42.694;23.346;2023-11-21T02:45:44;95380.47;;;2.93;83.84
77288;BME280;66345;42.694;23.346;2023-11-21T02:48:09;95385.06;;;3.09;83.46
77288;BME280;66345;42.694;23.346;2023-11-21T02:50:34;95378.91;;;3.00;82.38
77288;BME280;66345;42.694;23.346;2023-11-21T02:53:04;95376.91;;;2.85;82.95
77288;BME280;66345;42.694;23.346;2023-11-21T02:55:31;95381.41;;;2.55;84.56
77288;BME280;66345;42.694;23.346;2023-11-21T02:58:00;95387.94;;;2.41;85.90
77288;BME280;66345;42.694;23.346;2023-11-21T03:00:25;95390.00;;;2.47;86.08
77288;BME280;66345;42.694;23.346;2023-11-21T03:02:51;95378.94;;;2.54;85.16
77288;BME280;66345;42.694;23.346;2023-11-21T03:05:16;95378.53;;;2.58;85.51
77288;BME280;66345;42.694;23.346;2023-11-21T03:07:42;95375.00;;;2.77;84.10
77288;BME280;66345;42.694;23.346;2023-11-21T03:10:08;95376.66;;;2.78;84.34
77288;BME280;66345;42.694;23.346;2023-11-21T03:12:34;95381.19;;;2.86;84.11
77288;BME280;66345;42.694;23.346;2023-11-21T03:14:59;95384.16;;;3.00;83.42
77288;BME280;66345;42.694;23.346;2023-11-21T03:17:27;95379.25;;;3.15;82.61
77288;BME280;66345;42.694;23.346;2023-11-21T03:19:52;95372.75;;;3.19;82.42
77288;BME280;66345;42.694;23.346;2023-11-21T03:22:17;95394.06;;;3.06;83.49
77288;BME280;66345;42.694;23.346;2023-11-21T03:24:44;95383.81;;;3.13;83.18
77288;BME280;66345;42.694;23.346;2023-11-21T03:27:09;95384.13;;;3.10;83.16
77288;BME280;66345;42.694;23.346;2023-11-21T03:29:35;95385.47;;;3.14;83.00
77288;BME280;66345;42.694;23.346;2023-11-21T03:32:00;95383.97;;;3.12;82.59
77288;BME280;66345;42.694;23.346;2023-11-21T03:34:27;95394.84;;;2.79;83.91
77288;BME280;66345;42.694;23.346;2023-11-21T03:36:53;95386.25;;;2.60;85.28
77288;BME280;66345;42.694;23.346;2023-11-21T03:39:22;95387.34;;;2.67;85.50
77288;BME280;66345;42.694;23.346;2023-11-21T03:41:47;95388.50;;;2.45;85.56
77288;BME280;66345;42.694;23.346;2023-11-21T03:44:14;95382.94;;;2.58;86.52
77288;BME280;66345;42.694;23.346;2023-11-21T03:46:40;95385.41;;;2.59;86.07
77288;BME280;66345;42.694;23.346;2023-11-21T03:49:05;95380.28;;;2.67;86.61
77288;BME280;66345;42.694;23.346;2023-11-21T03:51:31;95359.88;;;2.71;86.02
77288;BME280;66345;42.694;23.346;2023-11-21T03:53:56;95353.28;;;2.94;84.45
77288;BME280;66345;42.694;23.346;2023-11-21T03:56:21;95358.53;;;2.94;84.64
77288;BME280;66345;42.694;23.346;2023-11-21T03:58:48;95360.03;;;2.97;84.27
77288;BME280;66345;42.694;23.346;2023-11-21T04:01:23;95360.53;;;3.10;83.72
77288;BME280;66345;42.694;23.346;2023-11-21T04:03:50;95371.16;;;2.81;84.48
77288;BME280;66345;42.694;23.346;2023-11-21T04:06:16;95368.88;;;2.49;85.95
77288;BME280;66345;42.694;23.346;2023-11-21T04:08:43;95362.22;;;2.64;85.99
77288;BME280;66345;42.694;23.346;2023-11-21T04:11:09;95357.13;;;2.72;85.69
77288;BME280;66345;42.694;23.346;2023-11-21T04:13:37;95366.59;;;2.83;85.50
77288;BME280;66345;42.694;23.346;2023-11-21T04:16:04;95352.34;;;2.95;84.39
77288;BME280;66345;42.694;23.346;2023-11-21T04:18:29;95363.75;;;3.04;84.43
77288;BME280;66345;42.694;23.346;2023-11-21T04:20:55;95357.94;;;3.00;84.28
77288;BME280;66345;42.694;23.346;2023-11-21T04:23:20;95355.22;;;3.20;83.48
77288;BME280;66345;42.694;23.346;2023-11-21T04:25:46;95351.16;;;3.08;82.96
77288;BME280;66345;42.694;23.346;2023-11-21T04:28:11;95352.31;;;3.23;82.88
77288;BME280;66345;42.694;23.346;2023-11-21T04:30:37;95357.78;;;3.29;81.81
77288;BME280;66345;42.694;23.346;2023-11-21T04:33:04;95361.13;;;3.04;82.38
77288;BME280;66345;42.694;23.346;2023-11-21T04:35:30;95354.34;;;3.01;82.67
77288;BME280;66345;42.694;23.346;2023-11-21T04:37:55;95348.69;;;3.06;81.95
77288;BME280;66345;42.694;23.346;2023-11-21T04:40:22;95363.59;;;3.05;81.72
77288;BME280;66345;42.694;23.346;2023-11-21T04:42:48;95358.91;;;2.99;81.85
77288;BME280;66345;42.694;23.346;2023-11-21T04:45:13;95358.66;;;2.93;82.14
77288;BME280;66345;42.694;23.346;2023-11-21T04:47:39;95360.13;;;3.05;81.39
77288;BME280;66345;42.694;23.346;2023-11-21T04:50:05;95362.03;;;3.13;81.08
77288;BME280;66345;42.694;23.346;2023-11-21T04:52:31;95362.84;;;3.13;81.54
77288;BME280;66345;42.694;23.346;2023-11-21T04:54:57;95372.69;;;3.01;81.27
77288;BME280;66345;42.694;23.346;2023-11-21T04:57:24;95356.84;;;3.03;81.50
77288;BME280;66345;42.694;23.346;2023-11-21T04:59:49;95369.72;;;2.87;82.56
77288;BME280;66345;42.694;23.346;2023-11-21T05:02:15;95363.03;;;3.02;82.28
77288;BME280;66345;42.694;23.346;2023-11-21T05:04:41;95373.50;;;3.12;81.83
77288;BME280;66345;42.694;23.346;2023-11-21T05:07:08;95364.50;;;3.14;81.59
77288;BME280;66345;42.694;23.346;2023-11-21T05:09:33;95362.78;;;3.23;81.73
77288;BME280;66345;42.694;23.346;2023-11-21T05:11:59;95374.75;;;3.08;81.52
77288;BME280;66345;42.694;23.346;2023-11-21T05:14:25;95363.38;;;3.17;81.87
77288;BME280;66345;42.694;23.346;2023-11-21T05:16:50;95351.81;;;3.10;81.62
77288;BME280;66345;42.694;23.346;2023-11-21T05:19:17;95355.69;;;2.78;83.29
77288;BME280;66345;42.694;23.346;2023-11-21T05:21:42;95358.66;;;2.93;83.82
77288;BME280;66345;42.694;23.346;2023-11-21T05:24:08;95335.91;;;2.93;83.62
77288;BME280;66345;42.694;23.346;2023-11-21T05:26:34;95343.34;;;2.98;83.09
77288;BME280;66345;42.694;23.346;2023-11-21T05:29:00;95359.31;;;3.04;82.46
77288;BME280;66345;42.694;23.346;2023-11-21T05:31:25;95366.69;;;3.19;82.49
77288;BME280;66345;42.694;23.346;2023-11-21T05:33:52;95371.44;;;3.33;82.22
77288;BME280;66345;42.694;23.346;2023-11-21T05:36:18;95369.88;;;3.40;81.64
77288;BME280;66345;42.694;23.346;2023-11-21T05:38:44;95365.66;;;3.47;81.39
77288;BME280;66345;42.694;23.346;2023-11-21T05:41:09;95361.94;;;3.50;81.03
77288;BME280;66345;42.694;23.346;2023-11-21T05:43:38;95378.97;;;3.64;80.83
77288;BME280;66345;42.694;23.346;2023-11-21T05:46:04;95376.19;;;3.65;79.94
77288;BME280;66345;42.694;23.346;2023-11-21T05:48:29;95375.91;;;3.68;80.28
77288;BME280;66345;42.694;23.346;2023-11-21T05:50:55;95383.53;;;3.61;80.26
77288;BME280;66345;42.694;23.346;2023-11-21T05:53:20;95372.38;;;3.59;80.02
77288;BME280;66345;42.694;23.346;2023-11-21T05:55:46;95362.84;;;3.58;80.20
77288;BME280;66345;42.694;23.346;2023-11-21T05:58:11;95355.38;;;3.64;79.81
77288;BME280;66345;42.694;23.346;2023-11-21T06:00:38;95365.88;;;3.64;79.66
77288;BME280;66345;42.694;23.346;2023-11-21T06:03:04;95358.13;;;3.62;79.67
77288;BME280;66345;42.694;23.346;2023-11-21T06:05:32;95372.53;;;3.76;78.83
77288;BME280;66345;42.694;23.346;2023-11-21T06:07:58;95368.19;;;3.67;80.06
77288;BME280;66345;42.694;23.346;2023-11-21T06:10:24;95371.94;;;3.64;79.98
77288;BME280;66345;42.694;23.346;2023-11-21T06:12:50;95370.13;;;3.65;79.72
77288;BME280;66345;42.694;23.346;2023-11-21T06:15:18;95373.41;;;3.84;79.28
77288;BME280;66345;42.694;23.346;2023-11-21T06:17:46;95366.81;;;3.62;80.11
77288;BME280;66345;42.694;23.346;2023-11-21T06:20:15;95366.91;;;3.71;80.13
77288;BME280;66345;42.694;23.346;2023-11-21T06:22:44;95362.09;;;3.66;79.86
77288;BME280;66345;42.694;23.346;2023-11-21T06:25:10;95378.63;;;3.94;79.57
77288;BME280;66345;42.694;23.346;2023-11-21T06:27:40;95382.56;;;4.16;78.49
77288;BME280;66345;42.694;23.346;2023-11-21T06:30:07;95390.09;;;3.93;78.86
77288;BME280;66345;42.694;23.346;2023-11-21T06:32:34;95388.56;;;3.90;80.22
77288;BME280;66345;42.694;23.346;2023-11-21T06:35:01;95391.94;;;4.18;78.26
77288;BME280;66345;42.694;23.346;2023-11-21T06:37:28;95390.75;;;4.13;77.62
77288;BME280;66345;42.694;23.346;2023-11-21T06:39:54;95396.00;;;3.95;78.26
77288;BME280;66345;42.694;23.346;2023-11-21T06:42:20;95395.53;;;4.17;78.03
77288;BME280;66345;42.694;23.346;2023-11-21T06:44:46;95399.63;;;4.38;76.79
77288;BME280;66345;42.694;23.346;2023-11-21T06:47:12;95402.63;;;4.43;75.58
77288;BME280;66345;42.694;23.346;2023-11-21T06:49:37;95394.81;;;4.51;75.90
77288;BME280;66345;42.694;23.346;2023-11-21T06:52:04;95384.97;;;4.53;75.63
77288;BME280;66345;42.694;23.346;2023-11-21T06:54:31;95391.00;;;4.71;76.01
77288;BME280;66345;42.694;23.346;2023-11-21T06:56:57;95396.22;;;4.97;74.20
77288;BME280;66345;42.694;23.346;2023-11-21T06:59:22;95392.91;;;5.21;73.56
77288;BME280;66345;42.694;23.346;2023-11-21T07:01:49;95390.63;;;4.66;74.96
77288;BME280;66345;42.694;23.346;2023-11-21T07:04:14;95383.59;;;5.01;74.35
77288;BME280;66345;42.694;23.346;2023-11-21T07:06:40;95395.56;;;4.95;75.31
77288;BME280;66345;42.694;23.346;2023-11-21T07:09:06;95395.47;;;5.13;74.07
77288;BME280;66345;42.694;23.346;2023-11-21T07:11:34;95385.69;;;5.23;74.61
77288;BME280;66345;42.694;23.346;2023-11-21T07:13:59;95389.34;;;5.31;74.16
77288;BME280;66345;42.694;23.346;2023-11-21T07:16:27;95381.88;;;5.18;74.42
77288;BME280;66345;42.694;23.346;2023-11-21T07:18:53;95385.09;;;5.38;75.11
77288;BME280;66345;42.694;23.346;2023-11-21T07:21:20;95384.09;;;5.97;72.48
77288;BME280;66345;42.694;23.346;2023-11-21T07:23:46;95385.50;;;5.67;73.14
77288;BME280;66345;42.694;23.346;2023-11-21T07:26:11;95378.19;;;5.37;74.89
77288;BME280;66345;42.694;23.346;2023-11-21T07:28:37;95379.63;;;5.90;72.78
77288;BME280;66345;42.694;23.346;2023-11-21T07:31:03;95390.50;;;5.95;72.46
77288;BME280;66345;42.694;23.346;2023-11-21T07:33:28;95384.91;;;6.55;70.55
77288;BME280;66345;42.694;23.346;2023-11-21T07:35:54;95385.41;;;6.75;69.75
77288;BME280;66345;42.694;23.346;2023-11-21T07:38:19;95382.22;;;6.87;68.83
77288;BME280;66345;42.694;23.346;2023-11-21T07:40:45;95375.66;;;6.83;68.60
77288;BME280;66345;42.694;23.346;2023-11-21T07:43:10;95374.84;;;7.92;65.70
77288;BME280;66345;42.694;23.346;2023-11-21T07:45:36;95362.13;;;8.94;61.61
77288;BME280;66345;42.694;23.346;2023-11-21T07:48:01;95363.72;;;9.69;58.26
77288;BME280;66345;42.694;23.346;2023-11-21T07:50:29;95360.25;;;9.68;57.53
77288;BME280;66345;42.694;23.346;2023-11-21T07:52:55;95359.38;;;9.47;58.23
77288;BME280;66345;42.694;23.346;2023-11-21T07:55:20;95358.09;;;9.28;58.99
77288;BME280;66345;42.694;23.346;2023-11-21T07:57:46;95357.97;;;8.47;60.20
77288;BME280;66345;42.694;23.346;2023-11-21T08:00:12;95368.69;;;8.00;63.30
77288;BME280;66345;42.694;23.346;2023-11-21T08:02:41;95363.75;;;7.74;63.71
77288;BME280;66345;42.694;23.346;2023-11-21T08:05:08;95356.06;;;8.10;63.34
77288;BME280;66345;42.694;23.346;2023-11-21T08:07:35;95346.78;;;8.37;61.62
77288;BME280;66345;42.694;23.346;2023-11-21T08:10:01;95350.47;;;8.28;62.72
77288;BME280;66345;42.694;23.346;2023-11-21T08:12:26;95344.38;;;8.27;62.69
77288;BME280;66345;42.694;23.346;2023-11-21T08:14:53;95340.09;;;8.26;62.84
77288;BME280;66345;42.694;23.346;2023-11-21T08:17:18;95349.25;;;8.39;62.80
77288;BME280;66345;42.694;23.346;2023-11-21T08:19:45;95351.34;;;9.10;60.57
77288;BME280;66345;42.694;23.346;2023-11-21T08:22:17;95350.72;;;8.79;61.27
77288;BME280;66345;42.694;23.346;2023-11-21T08:24:43;95343.03;;;9.13;59.69
77288;BME280;66345;42.694;23.346;2023-11-21T08:27:09;95333.94;;;9.01;59.93
77288;BME280;66345;42.694;23.346;2023-11-21T08:29:35;95344.41;;;9.24;59.59
77288;BME280;66345;42.694;23.346;2023-11-21T08:32:02;95354.44;;;9.14;59.62
77288;BME280;66345;42.694;23.346;2023-11-21T08:34:28;95354.63;;;8.98;60.68
77288;BME280;66345;42.694;23.346;2023-11-21T08:36:54;95350.00;;;9.14;60.35
77288;BME280;66345;42.694;23.346;2023-11-21T08:39:20;95349.50;;;8.81;61.03
77288;BME280;66345;42.694;23.346;2023-11-21T08:41:49;95354.72;;;9.04;61.02
77288;BME280;66345;42.694;23.346;2023-11-21T08:44:16;95342.78;;;9.08;59.68
77288;BME280;66345;42.694;23.346;2023-11-21T08:46:44;95332.38;;;8.77;60.84
77288;BME280;66345;42.694;23.346;2023-11-21T08:49:11;95342.41;;;8.82;60.60
77288;BME280;66345;42.694;23.346;2023-11-21T08:51:37;95333.81;;;8.80;60.82
77288;BME280;66345;42.694;23.346;2023-11-21T08:54:03;95338.53;;;8.40;62.46
77288;BME280;66345;42.694;23.346;2023-11-21T08:56:32;95328.97;;;8.83;61.41
77288;BME280;66345;42.694;23.346;2023-11-21T08:58:57;95331.28;;;9.01;60.59
77288;BME280;66345;42.694;23.346;2023-11-21T09:01:23;95318.44;;;8.46;62.06
77288;BME280;66345;42.694;23.346;2023-11-21T09:03:48;95313.84;;;8.02;64.04
77288;BME280;66345;42.694;23.346;2023-11-21T09:06:15;95309.28;;;8.56;62.08
77288;BME280;66345;42.694;23.346;2023-11-21T09:08:41;95298.38;;;8.37;63.10
77288;BME280;66345;42.694;23.346;2023-11-21T09:11:07;95301.69;;;7.93;64.24
77288;BME280;66345;42.694;23.346;2023-11-21T09:13:33;95289.13;;;8.55;62.62
77288;BME280;66345;42.694;23.346;2023-11-21T09:15:59;95277.56;;;8.33;63.30
77288;BME280;66345;42.694;23.346;2023-11-21T09:18:25;95269.03;;;8.46;63.19
77288;BME280;66345;42.694;23.346;2023-11-21T09:20:51;95273.44;;;8.54;62.95
77288;BME280;66345;42.694;23.346;2023-11-21T09:23:16;95259.38;;;8.53;63.01
77288;BME280;66345;42.694;23.346;2023-11-21T09:25:41;95272.13;;;8.35;63.56
77288;BME280;66345;42.694;23.346;2023-11-21T09:28:11;95262.94;;;8.60;62.99
77288;BME280;66345;42.694;23.346;2023-11-21T09:30:37;95259.75;;;8.65;62.53
77288;BME280;66345;42.694;23.346;2023-11-21T09:33:03;95244.25;;;8.77;62.39
77288;BME280;66345;42.694;23.346;2023-11-21T09:35:33;95237.19;;;8.84;62.12
77288;BME280;66345;42.694;23.346;2023-11-21T09:37:59;95225.56;;;8.78;62.08
77288;BME280;66345;42.694;23.346;2023-11-21T09:40:26;95226.13;;;8.21;64.16
77288;BME280;66345;42.694;23.346;2023-11-21T09:42:56;95222.16;;;7.88;65.62
77288;BME280;66345;42.694;23.346;2023-11-21T09:47:53;95216.44;;;9.17;61.34
77288;BME280;66345;42.694;23.346;2023-11-21T09:50:21;95199.81;;;9.44;60.15
77288;BME280;66345;42.694;23.346;2023-11-21T09:53:21;95194.44;;;9.59;60.11
77288;BME280;66345;42.694;23.346;2023-11-21T09:55:48;95185.88;;;9.14;61.73
77288;BME280;66345;42.694;23.346;2023-11-21T09:58:16;95171.75;;;9.71;59.59
77288;BME280;66345;42.694;23.346;2023-11-21T10:00:44;95172.63;;;9.57;60.70
77288;BME280;66345;42.694;23.346;2023-11-21T10:03:11;95165.72;;;9.35;61.20
77288;BME280;66345;42.694;23.346;2023-11-21T10:05:37;95163.13;;;9.63;60.73
77288;BME280;66345;42.694;23.346;2023-11-21T10:08:10;95166.31;;;9.58;60.70
77288;BME280;66345;42.694;23.346;2023-11-21T10:10:37;95159.91;;;9.95;60.62
77288;BME280;66345;42.694;23.346;2023-11-21T10:13:04;95158.91;;;10.59;57.50
77288;BME280;66345;42.694;23.346;2023-11-21T10:15:33;95161.63;;;11.40;55.33
77288;BME280;66345;42.694;23.346;2023-11-21T10:18:04;95150.09;;;12.72;51.13
77288;BME280;66345;42.694;23.346;2023-11-21T10:20:32;95137.84;;;12.64;51.18
77288;BME280;66345;42.694;23.346;2023-11-21T10:23:03;95133.97;;;13.05;49.83
77288;BME280;66345;42.694;23.346;2023-11-21T10:25:29;95141.94;;;12.67;51.03
77288;BME280;66345;42.694;23.346;2023-11-21T10:27:59;95142.25;;;12.12;52.37
77288;BME280;66345;42.694;23.346;2023-11-21T10:30:34;95133.09;;;11.88;53.14
77288;BME280;66345;42.694;23.346;2023-11-21T10:33:05;95129.78;;;11.73;53.51
77288;BME280;66345;42.694;23.346;2023-11-21T10:35:48;95128.34;;;11.57;53.50
77288;BME280;66345;42.694;23.346;2023-11-21T10:38:17;95118.75;;;11.56;53.60
77288;BME280;66345;42.694;23.346;2023-11-21T10:40:44;95125.47;;;11.46;53.83
77288;BME280;66345;42.694;23.346;2023-11-21T10:43:10;95111.75;;;11.22;53.44
77288;BME280;66345;42.694;23.346;2023-11-21T10:45:37;95115.81;;;11.25;53.66
77288;BME280;66345;42.694;23.346;2023-11-21T10:48:05;95116.81;;;11.10;54.76
77288;BME280;66345;42.694;23.346;2023-11-21T10:50:36;95110.91;;;11.08;54.95
77288;BME280;66345;42.694;23.346;2023-11-21T10:53:05;95121.38;;;11.36;53.63
77288;BME280;66345;42.694;23.346;2023-11-21T10:55:32;95104.81;;;11.21;53.59
77288;BME280;66345;42.694;23.346;2023-11-21T10:58:02;95103.09;;;10.94;54.78
77288;BME280;66345;42.694;23.346;2023-11-21T11:00:30;95109.66;;;10.50;56.08
77288;BME280;66345;42.694;23.346;2023-11-21T11:02:56;95096.25;;;10.58;56.47
77288;BME280;66345;42.694;23.346;2023-11-21T11:05:23;95099.06;;;10.50;56.16
77288;BME280;66345;42.694;23.346;2023-11-21T11:08:09;95095.97;;;10.40;56.26
77288;BME280;66345;42.694;23.346;2023-11-21T11:10:37;95086.53;;;10.31;56.55
77288;BME280;66345;42.694;23.346;2023-11-21T11:13:04;95091.16;;;10.63;56.34
77288;BME280;66345;42.694;23.346;2023-11-21T11:15:30;95080.91;;;10.47;57.22
77288;BME280;66345;42.694;23.346;2023-11-21T11:17:55;95081.09;;;10.45;57.35
77288;BME280;66345;42.694;23.346;2023-11-21T11:20:23;95081.69;;;10.41;57.83
77288;BME280;66345;42.694;23.346;2023-11-21T11:23:13;95069.44;;;10.40;57.49
77288;BME280;66345;42.694;23.346;2023-11-21T11:26:02;95063.16;;;10.54;57.65
77288;BME280;66345;42.694;23.346;2023-11-21T11:28:46;95057.06;;;10.53;57.18
77288;BME280;66345;42.694;23.346;2023-11-21T11:31:32;95055.72;;;10.84;56.25
77288;BME280;66345;42.694;23.346;2023-11-21T11:34:23;95045.00;;;10.51;56.44
77288;BME280;66345;42.694;23.346;2023-11-21T11:37:02;95039.19;;;10.82;55.06
77288;BME280;66345;42.694;23.346;2023-11-21T11:39:39;95049.00;;;11.01;54.88
77288;BME280;66345;42.694;23.346;2023-11-21T11:42:10;95047.16;;;10.89;54.62
77288;BME280;66345;42.694;23.346;2023-11-21T11:47:31;95046.88;;;10.64;56.64
77288;BME280;66345;42.694;23.346;2023-11-21T11:50:08;95058.94;;;10.79;58.67
77288;BME280;66345;42.694;23.346;2023-11-21T11:52:48;95073.69;;;9.99;61.46
77288;BME280;66345;42.694;23.346;2023-11-21T11:55:17;95074.53;;;10.00;62.84
77288;BME280;66345;42.694;23.346;2023-11-21T11:57:53;95067.09;;;9.89;62.22
77288;BME280;66345;42.694;23.346;2023-11-21T12:02:57;95060.53;;;10.19;61.82
77288;BME280;66345;42.694;23.346;2023-11-21T12:05:25;95054.03;;;10.22;62.13
77288;BME280;66345;42.694;23.346;2023-11-21T12:08:01;95064.66;;;10.22;60.96
77288;BME280;66345;42.694;23.346;2023-11-21T12:10:28;95057.44;;;10.09;61.96
77288;BME280;66345;42.694;23.346;2023-11-21T12:13:00;95065.56;;;10.01;64.67
77288;BME280;66345;42.694;23.346;2023-11-21T12:15:26;95073.16;;;9.76;67.00
77288;BME280;66345;42.694;23.346;2023-11-21T12:17:54;95056.97;;;9.64;67.70
77288;BME280;66345;42.694;23.346;2023-11-21T12:20:21;95046.09;;;9.53;68.91
77288;BME280;66345;42.694;23.346;2023-11-21T12:22:49;95066.22;;;9.47;70.41
77288;BME280;66345;42.694;23.346;2023-11-21T12:25:33;95054.34;;;9.43;71.74
77288;BME280;66345;42.694;23.346;2023-11-21T12:27:59;95048.28;;;9.49;69.93
77288;BME280;66345;42.694;23.346;2023-11-21T12:30:27;95051.84;;;9.35;70.73
77288;BME280;66345;42.694;23.346;2023-11-21T12:33:01;95065.53;;;9.38;70.54
77288;BME280;66345;42.694;23.346;2023-11-21T12:35:28;95076.94;;;9.39;72.82
77288;BME280;66345;42.694;23.346;2023-11-21T12:37:55;95059.31;;;9.25;72.64
77288;BME280;66345;42.694;23.346;2023-11-21T12:40:25;95064.97;;;9.22;73.77
77288;BME280;66345;42.694;23.346;2023-11-21T12:42:55;95060.94;;;9.26;72.17
77288;BME280;66345;42.694;23.346;2023-11-21T12:45:24;95055.72;;;9.32;72.40
77288;BME280;66345;42.694;23.346;2023-11-21T12:47:57;95055.09;;;9.09;74.78
77288;BME280;66345;42.694;23.346;2023-11-21T12:50:30;95044.19;;;9.18;74.82
77288;BME280;66345;42.694;23.346;2023-11-21T12:53:04;95036.44;;;9.17;74.61
77288;BME280;66345;42.694;23.346;2023-11-21T12:55:34;95030.19;;;9.25;74.25
77288;BME280;66345;42.694;23.346;2023-11-21T12:58:06;95018.34;;;9.21;72.62
77288;BME280;66345;42.694;23.346;2023-11-21T13:00:40;95017.00;;;9.31;72.86
77288;BME280;66345;42.694;23.346;2023-11-21T13:03:09;95010.75;;;9.39;69.99
77288;BME280;66345;42.694;23.346;2023-11-21T13:05:36;95011.75;;;9.38;71.95
77288;BME280;66345;42.694;23.346;2023-11-21T13:08:08;95011.22;;;9.21;72.90
77288;BME280;66345;42.694;23.346;2023-11-21T13:10:36;95017.47;;;9.13;72.65